createdAt,value
2017-11-21T00:02:26.791Z,90.10
2017-11-21T00:04:55.091Z,90.10
2017-11-21T00:07:22.641Z,90.10
2017-11-21T00:09:50.823Z,90.20
2017-11-21T00:12:18.406Z,90.30
2017-11-21T00:14:45.932Z,90.30
2017-11-21T00:17:14.240Z,90.10
2017-11-21T00:19:41.795Z,90.10
2017-11-21T00:22:09.389Z,90.10
2017-11-21T00:24:37.691Z,90.30
2017-11-21T00:27:06.082Z,90.30
2017-11-21T00:29:33.627Z,90.30
2017-11-21T00:32:01.918Z,90.30
2017-11-21T00:34:29.514Z,90.30
2017-11-21T00:36:57.090Z,90.40
2017-11-21T00:39:25.618Z,90.30
2017-11-21T00:41:53.895Z,90.20
2017-11-21T00:44:21.462Z,90.20
2017-11-21T00:46:49.004Z,90.20
2017-11-21T00:49:17.342Z,90.30
2017-11-21T00:51:44.874Z,90.30
2017-11-21T00:54:12.399Z,90.40
2017-11-21T00:56:39.924Z,90.10
2017-11-21T00:59:08.262Z,90.40
2017-11-21T01:01:35.777Z,90.40
2017-11-21T01:04:04.094Z,90.70
2017-11-21T01:06:31.600Z,90.70
2017-11-21T01:08:59.132Z,90.70
2017-11-21T01:11:26.678Z,90.80
2017-11-21T01:13:54.218Z,90.70
2017-11-21T01:16:21.823Z,90.80
2017-11-21T01:18:50.372Z,90.80
2017-11-21T01:21:17.974Z,90.80
2017-11-21T01:23:45.562Z,90.90
2017-11-21T01:26:13.895Z,91.10
2017-11-21T01:28:41.463Z,91.10
2017-11-21T01:31:08.996Z,91.00
2017-11-21T01:33:36.569Z,90.90
2017-11-21T01:36:04.103Z,90.90
2017-11-21T01:38:31.710Z,90.90
2017-11-21T01:40:59.878Z,91.00
2017-11-21T01:43:27.532Z,91.00
2017-11-21T01:45:55.809Z,91.10
2017-11-21T01:48:23.350Z,91.10
2017-11-21T01:50:50.910Z,91.20
2017-11-21T01:53:18.431Z,91.20
2017-11-21T01:55:45.977Z,91.10
2017-11-21T01:58:14.283Z,91.10
2017-11-21T02:00:41.884Z,91.10
2017-11-21T02:03:09.406Z,91.10
2017-11-21T02:05:36.941Z,91.20
2017-11-21T02:08:05.296Z,91.30
2017-11-21T02:10:33.651Z,91.30
2017-11-21T02:13:01.209Z,91.30
2017-11-21T02:15:28.769Z,91.40
2017-11-21T02:17:56.355Z,91.50
2017-11-21T02:20:24.691Z,91.60
2017-11-21T02:22:52.236Z,91.60
2017-11-21T02:25:19.869Z,91.70
2017-11-21T02:27:48.178Z,91.60
2017-11-21T02:30:15.780Z,91.60
2017-11-21T02:32:43.428Z,91.60
2017-11-21T02:35:11.007Z,91.80
2017-11-21T02:37:38.548Z,91.90
2017-11-21T02:40:06.118Z,92.00
2017-11-21T02:42:33.668Z,92.00
2017-11-21T02:45:01.195Z,92.00
2017-11-21T02:47:28.787Z,91.90
2017-11-21T02:49:56.365Z,91.90
2017-11-21T02:52:24.744Z,91.90
2017-11-21T02:54:52.272Z,91.90
2017-11-21T02:57:19.804Z,91.80
2017-11-21T02:59:47.385Z,91.80
2017-11-21T03:02:14.905Z,91.90
2017-11-21T03:04:42.526Z,92.00
2017-11-21T03:07:10.098Z,92.00
2017-11-21T03:09:39.141Z,92.00
2017-11-21T03:12:06.839Z,92.00
2017-11-21T03:14:34.493Z,92.00
2017-11-21T03:17:02.084Z,92.00
2017-11-21T03:19:29.700Z,91.90
2017-11-21T03:22:09.014Z,92.00
2017-11-21T03:24:48.435Z,92.00
2017-11-21T03:27:16.808Z,92.20
2017-11-21T03:29:45.139Z,92.20
2017-11-21T03:32:12.690Z,92.20
2017-11-21T03:34:40.240Z,92.20
2017-11-21T03:37:07.836Z,92.20
2017-11-21T03:39:36.208Z,92.20
2017-11-21T03:42:03.742Z,92.30
2017-11-21T03:44:31.339Z,92.30
2017-11-21T03:46:58.863Z,92.30
2017-11-21T03:49:26.420Z,92.20
2017-11-21T03:51:53.991Z,92.30
2017-11-21T03:54:21.600Z,92.40
2017-11-21T03:56:49.904Z,92.30
2017-11-21T03:59:18.265Z,92.40
2017-11-21T04:01:45.757Z,92.30
2017-11-21T04:04:13.352Z,92.20
2017-11-21T04:06:40.933Z,92.30
2017-11-21T04:09:08.621Z,92.30
2017-11-21T04:11:36.137Z,92.30
2017-11-21T04:14:03.629Z,92.40
2017-11-21T04:16:31.193Z,92.40
2017-11-21T04:18:59.482Z,92.40
2017-11-21T04:21:26.977Z,92.40
2017-11-21T04:23:54.477Z,92.40
2017-11-21T04:26:22.792Z,92.50
2017-11-21T04:28:50.331Z,92.50
2017-11-21T04:31:18.581Z,92.60
2017-11-21T04:33:46.065Z,92.60
2017-11-21T04:36:13.631Z,92.60
2017-11-21T04:38:41.126Z,92.60
2017-11-21T04:41:08.640Z,92.60
2017-11-21T04:43:36.324Z,92.60
2017-11-21T04:46:03.853Z,92.50
2017-11-21T04:48:32.134Z,92.60
2017-11-21T04:50:59.626Z,92.60
2017-11-21T04:53:27.133Z,92.70
2017-11-21T04:55:55.453Z,92.70
2017-11-21T04:58:23.012Z,92.70
2017-11-21T05:00:50.546Z,92.70
2017-11-21T05:03:18.848Z,92.80
2017-11-21T05:05:46.373Z,92.70
2017-11-21T05:08:14.682Z,92.90
2017-11-21T05:10:42.180Z,92.90
2017-11-21T05:13:09.682Z,92.70
2017-11-21T05:15:37.183Z,92.70
2017-11-21T05:18:04.798Z,92.70
2017-11-21T05:20:32.284Z,92.70
2017-11-21T05:22:59.772Z,92.80
2017-11-21T05:25:27.363Z,92.80
2017-11-21T05:27:55.621Z,92.70
2017-11-21T05:30:23.144Z,92.70
2017-11-21T05:33:02.697Z,92.70
2017-11-21T05:35:30.222Z,92.50
2017-11-21T05:37:57.716Z,92.60
2017-11-21T05:40:25.223Z,92.50
2017-11-21T05:42:52.777Z,92.50
2017-11-21T05:45:21.067Z,92.60
2017-11-21T05:47:48.588Z,92.60
2017-11-21T05:50:16.175Z,92.70
2017-11-21T05:52:43.736Z,92.60
2017-11-21T05:55:11.294Z,92.70
2017-11-21T05:57:38.785Z,92.80
2017-11-21T06:00:06.325Z,92.80
2017-11-21T06:02:33.852Z,92.80
2017-11-21T06:05:01.455Z,92.80
2017-11-21T06:07:28.945Z,92.80
2017-11-21T06:09:56.470Z,92.80
2017-11-21T06:12:23.986Z,92.80
2017-11-21T06:14:51.592Z,92.80
2017-11-21T06:17:19.122Z,92.70
2017-11-21T06:19:46.689Z,92.70
2017-11-21T06:22:14.243Z,92.70
2017-11-21T06:24:42.610Z,92.80
2017-11-21T06:27:10.899Z,92.70
2017-11-21T06:29:38.394Z,92.70
2017-11-21T06:32:05.896Z,92.60
2017-11-21T06:34:34.189Z,92.60
2017-11-21T06:37:02.581Z,92.60
2017-11-21T06:39:30.130Z,92.60
2017-11-21T06:41:57.695Z,92.60
2017-11-21T06:44:25.242Z,92.60
2017-11-21T06:46:53.488Z,92.60
2017-11-21T06:49:21.090Z,92.60
2017-11-21T06:51:48.584Z,92.60
2017-11-21T06:54:16.105Z,92.50
2017-11-21T06:56:43.595Z,92.40
2017-11-21T06:59:11.170Z,92.40
2017-11-21T07:01:39.599Z,92.50
2017-11-21T07:04:08.003Z,92.40
2017-11-21T07:06:35.534Z,92.40
2017-11-21T07:09:04.465Z,92.60
2017-11-21T07:11:31.965Z,92.60
2017-11-21T07:13:59.553Z,92.60
2017-11-21T07:16:27.107Z,92.70
2017-11-21T07:18:54.671Z,92.80
2017-11-21T07:21:22.179Z,92.70
2017-11-21T07:23:49.689Z,92.70
2017-11-21T07:26:17.277Z,92.60
2017-11-21T07:28:44.767Z,92.60
2017-11-21T07:31:13.024Z,92.50
2017-11-21T07:33:41.388Z,92.50
2017-11-21T07:36:08.896Z,92.70
2017-11-21T07:38:37.179Z,92.80
2017-11-21T07:41:05.428Z,92.70
2017-11-21T07:43:32.924Z,92.70
2017-11-21T07:46:00.487Z,92.70
2017-11-21T07:48:27.980Z,92.70
2017-11-21T07:50:55.606Z,92.70
2017-11-21T07:53:23.091Z,92.60
2017-11-21T07:55:50.588Z,92.60
2017-11-21T07:58:18.179Z,92.60
2017-11-21T08:00:45.669Z,92.60
2017-11-21T08:03:13.181Z,92.50
2017-11-21T08:05:41.478Z,92.50
2017-11-21T08:08:08.963Z,92.50
2017-11-21T08:10:36.457Z,92.60
2017-11-21T08:13:03.981Z,92.70
2017-11-21T08:15:31.489Z,92.70
2017-11-21T08:17:59.750Z,92.80
2017-11-21T08:20:27.251Z,92.80
2017-11-21T08:22:54.739Z,92.80
2017-11-21T08:25:22.221Z,92.70
2017-11-21T08:27:49.722Z,92.60
2017-11-21T08:30:17.209Z,92.60
2017-11-21T08:32:44.706Z,92.70
2017-11-21T08:35:12.977Z,98.10
2017-11-21T08:37:40.477Z,97.80
2017-11-21T08:40:07.981Z,96.00
2017-11-21T08:42:35.463Z,94.60
2017-11-21T08:45:03.726Z,94.10
2017-11-21T08:47:31.208Z,94.10
2017-11-21T08:49:58.699Z,94.10
2017-11-21T08:52:26.894Z,94.00
2017-11-21T08:54:54.384Z,93.90
2017-11-21T08:57:22.644Z,94.00
2017-11-21T08:59:50.149Z,94.00
2017-11-21T09:02:17.631Z,93.80
2017-11-21T09:04:45.161Z,93.80
2017-11-21T09:07:12.662Z,93.70
2017-11-21T09:09:40.153Z,93.70
2017-11-21T09:12:08.413Z,93.50
2017-11-21T09:14:35.912Z,93.50
2017-11-21T09:17:03.419Z,93.60
2017-11-21T09:19:30.913Z,93.50
2017-11-21T09:22:00.081Z,93.90
2017-11-21T09:24:27.584Z,93.60
2017-11-21T09:26:55.083Z,93.60
2017-11-21T09:29:22.596Z,93.60
2017-11-21T09:31:50.085Z,93.30
2017-11-21T09:34:17.564Z,93.20
2017-11-21T09:36:45.088Z,93.30
2017-11-21T09:39:12.586Z,93.20
2017-11-21T09:41:40.088Z,93.20
2017-11-21T09:44:07.581Z,93.20
2017-11-21T09:46:35.065Z,93.40
2017-11-21T09:49:02.562Z,93.50
2017-11-21T09:51:30.054Z,93.40
2017-11-21T09:53:57.566Z,93.40
2017-11-21T09:56:25.817Z,93.30
2017-11-21T09:58:53.405Z,93.30
2017-11-21T10:01:20.961Z,93.20
2017-11-21T10:03:49.205Z,93.20
2017-11-21T10:06:16.720Z,93.20
2017-11-21T10:08:44.206Z,93.30
2017-11-21T10:11:11.711Z,93.20
2017-11-21T10:13:39.991Z,93.00
2017-11-21T10:16:07.481Z,93.00
2017-11-21T10:18:35.024Z,93.10
2017-11-21T10:21:03.515Z,93.10
2017-11-21T10:23:31.079Z,93.20
2017-11-21T10:25:58.600Z,93.20
2017-11-21T10:28:26.856Z,93.10
2017-11-21T10:30:54.374Z,93.10
2017-11-21T10:33:21.869Z,93.10
2017-11-21T10:35:49.472Z,93.00
2017-11-21T10:38:17.005Z,93.00
2017-11-21T10:40:45.318Z,93.20
2017-11-21T10:43:12.833Z,93.20
2017-11-21T10:45:40.409Z,92.80
2017-11-21T10:48:09.799Z,93.00
2017-11-21T10:50:38.070Z,92.90
2017-11-21T10:53:06.357Z,93.10
2017-11-21T10:55:34.633Z,93.20
2017-11-21T10:58:02.982Z,93.20
2017-11-21T11:00:30.469Z,93.20
2017-11-21T11:02:58.745Z,93.20
2017-11-21T11:05:27.026Z,93.10
2017-11-21T11:07:55.327Z,93.10
2017-11-21T11:10:22.901Z,93.10
2017-11-21T11:12:50.402Z,93.20
2017-11-21T11:15:17.909Z,93.00
2017-11-21T11:17:45.401Z,92.90
2017-11-21T11:20:12.919Z,92.90
2017-11-21T11:22:40.407Z,92.90
2017-11-21T11:25:07.932Z,92.80
2017-11-21T11:27:35.430Z,92.80
2017-11-21T11:30:02.922Z,92.60
2017-11-21T11:32:31.251Z,92.70
2017-11-21T11:34:58.736Z,92.60
2017-11-21T11:37:26.229Z,92.70
2017-11-21T11:39:53.728Z,92.40
2017-11-21T11:42:21.251Z,92.50
2017-11-21T11:44:48.762Z,92.70
2017-11-21T11:47:16.251Z,92.70
2017-11-21T11:49:44.496Z,92.40
2017-11-21T11:52:11.990Z,92.40
2017-11-21T11:54:40.260Z,92.40
2017-11-21T11:57:08.569Z,92.50
2017-11-21T11:59:36.052Z,92.80
2017-11-21T12:02:03.588Z,92.50
2017-11-21T12:04:31.083Z,92.80
2017-11-21T12:06:58.569Z,92.80
2017-11-21T12:09:26.836Z,92.60
2017-11-21T12:11:55.089Z,92.70
2017-11-21T12:14:22.572Z,92.70
2017-11-21T12:16:51.172Z,92.90
2017-11-21T12:19:18.674Z,92.80
2017-11-21T12:21:46.202Z,92.90
2017-11-21T12:24:13.690Z,93.00
2017-11-21T12:26:41.179Z,93.10
2017-11-21T12:29:08.674Z,92.90
2017-11-21T12:31:36.168Z,93.10
2017-11-21T12:34:03.698Z,92.90
2017-11-21T12:36:31.176Z,93.10
2017-11-21T12:38:58.665Z,92.90
2017-11-21T12:41:26.172Z,92.90
2017-11-21T12:43:55.175Z,92.90
2017-11-21T12:46:22.681Z,92.90
2017-11-21T12:48:50.929Z,93.20
2017-11-21T12:51:18.418Z,93.00
2017-11-21T12:53:46.682Z,92.60
2017-11-21T12:56:14.167Z,92.60
2017-11-21T12:58:43.365Z,92.50
2017-11-21T13:01:11.615Z,92.60
2017-11-21T13:03:39.097Z,92.60
2017-11-21T13:06:07.358Z,92.80
2017-11-21T13:08:34.841Z,92.80
2017-11-21T13:11:02.357Z,92.40
2017-11-21T13:13:29.846Z,92.30
2017-11-21T13:15:58.099Z,92.30
2017-11-21T13:18:25.608Z,92.30
2017-11-21T13:20:53.089Z,92.30
2017-11-21T13:23:20.636Z,92.40
2017-11-21T13:25:48.128Z,92.50
2017-11-21T13:28:15.625Z,92.50
2017-11-21T13:30:43.124Z,92.70
2017-11-21T13:33:10.626Z,92.60
2017-11-21T13:35:38.890Z,92.70
2017-11-21T13:38:07.146Z,92.70
2017-11-21T13:40:34.683Z,92.70
2017-11-21T13:43:02.190Z,92.70
2017-11-21T13:45:30.433Z,92.80
2017-11-21T13:47:57.948Z,92.80
2017-11-21T13:50:25.457Z,92.60
2017-11-21T13:52:52.941Z,92.70
2017-11-21T13:55:21.212Z,92.80
2017-11-21T13:57:49.465Z,92.60
2017-11-21T14:00:16.980Z,92.60
2017-11-21T14:02:48.367Z,92.50
2017-11-21T14:05:15.862Z,92.70
2017-11-21T14:07:44.139Z,92.50
2017-11-21T14:10:12.399Z,92.50
2017-11-21T14:12:39.902Z,92.50
2017-11-21T14:15:07.390Z,92.60
2017-11-21T14:17:34.894Z,92.70
2017-11-21T14:20:02.388Z,92.80
2017-11-21T14:22:29.898Z,92.90
2017-11-21T14:24:58.177Z,92.90
2017-11-21T14:27:26.424Z,92.90
2017-11-21T14:29:53.923Z,92.90
2017-11-21T14:32:21.427Z,92.90
2017-11-21T14:34:48.917Z,92.80
2017-11-21T14:37:17.261Z,93.10
2017-11-21T14:39:44.756Z,92.90
2017-11-21T14:42:13.017Z,93.10
2017-11-21T14:44:40.529Z,93.10
2017-11-21T14:47:08.079Z,93.20
2017-11-21T14:49:35.652Z,93.20
2017-11-21T14:52:03.149Z,93.10
2017-11-21T14:54:30.650Z,93.20
2017-11-21T14:56:58.149Z,93.20
2017-11-21T14:59:25.628Z,93.20
2017-11-21T15:01:53.136Z,93.20
2017-11-21T15:04:20.664Z,93.30
2017-11-21T15:06:48.915Z,93.20
2017-11-21T15:09:16.412Z,93.20
2017-11-21T15:11:44.704Z,93.30
2017-11-21T15:14:12.235Z,93.20
2017-11-21T15:16:40.489Z,93.30
2017-11-21T15:19:08.007Z,93.20
2017-11-21T15:21:35.513Z,93.30
2017-11-21T15:24:03.003Z,93.20
2017-11-21T15:26:30.513Z,93.30
2017-11-21T15:28:58.010Z,93.20
2017-11-21T15:31:25.561Z,93.40
2017-11-21T15:33:53.036Z,93.30
2017-11-21T15:36:20.526Z,93.20
2017-11-21T15:38:48.032Z,93.20
2017-11-21T15:41:16.286Z,93.20
2017-11-21T15:43:43.783Z,93.20
2017-11-21T15:46:11.293Z,93.30
2017-11-21T15:48:38.837Z,93.30
2017-11-21T15:51:06.370Z,93.30
2017-11-21T15:53:33.863Z,93.30
2017-11-21T15:56:01.355Z,93.40
2017-11-21T15:58:29.628Z,93.40
2017-11-21T16:00:57.958Z,93.40
2017-11-21T16:03:25.476Z,93.40
2017-11-21T16:05:53.754Z,93.40
2017-11-21T16:08:22.019Z,93.40
2017-11-21T16:10:50.300Z,93.40
2017-11-21T16:13:18.557Z,93.40
2017-11-21T16:15:46.069Z,93.40
2017-11-21T16:18:13.597Z,93.40
2017-11-21T16:20:41.866Z,93.30
2017-11-21T16:23:10.166Z,93.40
2017-11-21T16:25:37.669Z,93.40
2017-11-21T16:28:05.185Z,93.40
2017-11-21T16:30:32.678Z,93.50
2017-11-21T16:33:00.170Z,93.40
2017-11-21T16:35:28.443Z,93.50
2017-11-21T16:37:55.957Z,93.50
2017-11-21T16:40:23.481Z,93.50
2017-11-21T16:42:50.983Z,93.50
2017-11-21T16:45:18.481Z,93.50
2017-11-21T16:47:46.791Z,93.50
2017-11-21T16:50:14.358Z,93.50
2017-11-21T16:52:41.876Z,93.50
2017-11-21T16:55:10.194Z,93.60
2017-11-21T16:57:37.696Z,93.60
2017-11-21T17:00:05.207Z,93.60
2017-11-21T17:02:32.743Z,93.70
2017-11-21T17:05:00.341Z,93.70
2017-11-21T17:07:27.848Z,93.70
2017-11-21T17:09:56.117Z,93.70
2017-11-21T17:12:23.624Z,93.70
2017-11-21T17:14:51.135Z,93.70
2017-11-21T17:17:18.758Z,93.80
2017-11-21T17:19:46.262Z,93.80
2017-11-21T17:22:14.553Z,93.90
2017-11-21T17:24:42.832Z,93.80
2017-11-21T17:27:10.356Z,94.10
2017-11-21T17:29:39.457Z,93.80
2017-11-21T17:32:07.845Z,93.90
2017-11-21T17:34:36.119Z,94.00
2017-11-21T17:37:04.089Z,93.90
2017-11-21T17:39:31.586Z,93.80
2017-11-21T17:41:59.128Z,93.80
2017-11-21T17:44:26.628Z,93.80
2017-11-21T17:46:54.153Z,93.90
2017-11-21T17:49:21.669Z,93.90
2017-11-21T17:51:49.194Z,93.90
2017-11-21T17:54:16.717Z,94.00
2017-11-21T17:56:44.222Z,94.10
2017-11-21T17:59:11.760Z,94.10
2017-11-21T18:01:39.277Z,94.10
2017-11-21T18:04:07.675Z,94.10
2017-11-21T18:06:35.305Z,94.00
2017-11-21T18:09:02.797Z,93.90
2017-11-21T18:11:30.304Z,94.00
2017-11-21T18:13:57.804Z,94.10
2017-11-21T18:16:25.306Z,94.10
2017-11-21T18:18:52.818Z,94.10
2017-11-21T18:21:20.332Z,94.20
2017-11-21T18:23:47.837Z,94.20
2017-11-21T18:26:15.354Z,94.10
2017-11-21T18:28:42.860Z,94.20
2017-11-21T18:31:10.380Z,94.20
2017-11-21T18:33:37.875Z,94.20
2017-11-21T18:36:05.367Z,94.30
2017-11-21T18:38:32.878Z,94.20
2017-11-21T18:41:00.414Z,94.20
2017-11-21T18:43:27.930Z,96.10
2017-11-21T18:45:55.429Z,97.70
2017-11-21T18:48:22.925Z,96.60
2017-11-21T18:50:50.437Z,96.20
2017-11-21T18:53:17.923Z,95.90
2017-11-21T18:55:46.226Z,95.60
2017-11-21T18:58:13.726Z,95.60
2017-11-21T19:00:41.235Z,95.60
2017-11-21T19:03:08.750Z,95.50
2017-11-21T19:05:36.240Z,95.50
2017-11-21T19:08:03.763Z,95.40
2017-11-21T19:10:31.266Z,95.40
2017-11-21T19:12:58.785Z,95.40
2017-11-21T19:15:26.326Z,95.40
2017-11-21T19:17:53.967Z,95.40
2017-11-21T19:20:21.487Z,95.40
2017-11-21T19:22:49.752Z,95.40
2017-11-21T19:25:18.027Z,95.40
2017-11-21T19:27:45.652Z,95.40
2017-11-21T19:30:13.194Z,95.40
2017-11-21T19:32:40.701Z,95.40
2017-11-21T19:35:08.198Z,95.40
2017-11-21T19:37:35.695Z,95.40
2017-11-21T19:40:03.198Z,95.50
2017-11-21T19:42:31.549Z,95.40
2017-11-21T19:44:59.109Z,95.40
2017-11-21T19:47:26.598Z,95.40
2017-11-21T19:49:54.107Z,95.40
2017-11-21T19:52:21.618Z,95.30
2017-11-21T19:54:49.105Z,95.40
2017-11-21T19:57:16.613Z,95.40
2017-11-21T19:59:44.882Z,95.40
2017-11-21T20:02:12.374Z,95.40
2017-11-21T20:04:39.881Z,95.40
2017-11-21T20:07:07.385Z,95.40
2017-11-21T20:09:34.937Z,95.40
2017-11-21T20:12:02.453Z,95.40
2017-11-21T20:14:29.997Z,95.40
2017-11-21T20:16:57.520Z,95.40
2017-11-21T20:19:25.786Z,95.50
2017-11-21T20:21:54.945Z,95.50
2017-11-21T20:24:22.449Z,95.50
2017-11-21T20:26:50.702Z,95.50
2017-11-21T20:29:18.209Z,95.50
2017-11-21T20:31:45.701Z,95.50
2017-11-21T20:34:14.107Z,95.50
2017-11-21T20:36:42.394Z,95.50
2017-11-21T20:39:10.658Z,95.60
2017-11-21T20:41:38.939Z,95.60
2017-11-21T20:44:07.218Z,95.50
2017-11-21T20:46:35.504Z,95.60
2017-11-21T20:49:03.015Z,95.60
2017-11-21T20:51:30.526Z,95.60
2017-11-21T20:53:58.029Z,95.50
2017-11-21T20:56:25.538Z,95.60
2017-11-21T20:58:53.045Z,95.50
2017-11-21T21:01:20.570Z,95.50
2017-11-21T21:03:48.063Z,95.50
2017-11-21T21:06:15.588Z,95.60
2017-11-21T21:08:43.086Z,95.50
2017-11-21T21:11:10.617Z,95.50
2017-11-21T21:13:38.894Z,95.60
2017-11-21T21:16:06.386Z,95.60
2017-11-21T21:18:33.913Z,95.50
2017-11-21T21:21:01.414Z,95.50
2017-11-21T21:23:28.894Z,95.60
2017-11-21T21:25:56.437Z,95.50
2017-11-21T21:28:24.725Z,95.50
2017-11-21T21:30:53.058Z,95.60
2017-11-21T21:33:20.608Z,95.50
2017-11-21T21:35:49.261Z,95.60
2017-11-21T21:38:16.833Z,95.60
2017-11-21T21:40:44.339Z,95.60
2017-11-21T21:43:12.642Z,95.60
2017-11-21T21:45:40.906Z,95.60
2017-11-21T21:48:09.169Z,95.60
2017-11-21T21:50:36.679Z,95.60
2017-11-21T21:53:04.210Z,95.60
2017-11-21T21:55:32.481Z,95.60
2017-11-21T21:58:00.733Z,95.60
2017-11-21T22:00:28.332Z,95.60
2017-11-21T22:02:55.846Z,95.60
2017-11-21T22:05:23.345Z,95.60
2017-11-21T22:07:50.854Z,95.60
2017-11-21T22:10:18.367Z,95.60
2017-11-21T22:12:45.877Z,95.60
2017-11-21T22:15:13.392Z,95.60
2017-11-21T22:17:40.978Z,95.60
2017-11-21T22:20:08.474Z,95.60
2017-11-21T22:22:36.753Z,95.60
2017-11-21T22:25:05.053Z,95.60
2017-11-21T22:27:32.554Z,95.60
2017-11-21T22:30:00.070Z,95.70
2017-11-21T22:32:27.577Z,95.90
2017-11-21T22:34:55.159Z,96.00
2017-11-21T22:37:23.413Z,96.40
2017-11-21T22:39:50.927Z,96.40
2017-11-21T22:42:18.424Z,96.40
2017-11-21T22:44:45.946Z,96.50
2017-11-21T22:47:13.435Z,96.40
2017-11-21T22:49:40.959Z,97.00
2017-11-21T22:52:08.467Z,97.00
2017-11-21T22:54:35.951Z,96.90
2017-11-21T22:57:04.226Z,97.00
2017-11-21T22:59:32.496Z,97.20
2017-11-21T23:02:00.768Z,97.20
2017-11-21T23:04:28.292Z,97.20
2017-11-21T23:06:55.859Z,97.10
2017-11-21T23:09:23.356Z,97.20
2017-11-21T23:11:51.626Z,97.10
2017-11-21T23:14:19.880Z,97.10
2017-11-21T23:16:47.370Z,97.10
2017-11-21T23:19:15.631Z,97.00
2017-11-21T23:21:43.141Z,97.00
2017-11-21T23:24:10.629Z,97.00
2017-11-21T23:26:38.139Z,97.00
2017-11-21T23:29:05.645Z,96.90
2017-11-21T23:31:33.141Z,97.00
2017-11-21T23:34:01.416Z,97.00
2017-11-21T23:36:29.666Z,97.00
2017-11-21T23:38:57.153Z,96.90
2017-11-21T23:41:25.412Z,97.00
2017-11-21T23:43:53.664Z,97.00
2017-11-21T23:46:21.165Z,97.00
2017-11-21T23:48:48.690Z,97.00
2017-11-21T23:51:16.184Z,97.00
2017-11-21T23:53:43.686Z,97.00
2017-11-21T23:56:11.169Z,96.90
2017-11-21T23:58:38.694Z,97.00
